sensor_id;sensor_type;location;lat;lon;timestamp;P1;durP1;ratioP1;P2;durP2;ratioP2
71150;SDS011;59071;42.138;24.768;2022-08-19T00:00:25;7.53;;;5.43;;
71150;SDS011;59071;42.138;24.768;2022-08-19T00:02:52;6.80;;;5.03;;
71150;SDS011;59071;42.138;24.768;2022-08-19T00:05:18;7.45;;;5.10;;
71150;SDS011;59071;42.138;24.768;2022-08-19T00:07:45;6.75;;;5.20;;
71150;SDS011;59071;42.138;24.768;2022-08-19T00:10:12;6.18;;;5.35;;
71150;SDS011;59071;42.138;24.768;2022-08-19T00:12:39;6.47;;;5.05;;
71150;SDS011;59071;42.138;24.768;2022-08-19T00:15:05;8.20;;;5.43;;
71150;SDS011;59071;42.138;24.768;2022-08-19T00:17:36;7.65;;;5.40;;
71150;SDS011;59071;42.138;24.768;2022-08-19T00:20:06;8.95;;;5.65;;
71150;SDS011;59071;42.138;24.768;2022-08-19T00:22:32;7.20;;;5.10;;
71150;SDS011;59071;42.138;24.768;2022-08-19T00:24:58;6.80;;;5.35;;
71150;SDS011;59071;42.138;24.768;2022-08-19T00:27:24;9.23;;;5.18;;
71150;SDS011;59071;42.138;24.768;2022-08-19T00:29:49;12.18;;;6.05;;
71150;SDS011;59071;42.138;24.768;2022-08-19T00:32:15;6.63;;;5.95;;
71150;SDS011;59071;42.138;24.768;2022-08-19T00:34:42;9.20;;;6.18;;
71150;SDS011;59071;42.138;24.768;2022-08-19T00:37:08;8.43;;;6.28;;
71150;SDS011;59071;42.138;24.768;2022-08-19T00:39:34;8.93;;;6.25;;
71150;SDS011;59071;42.138;24.768;2022-08-19T00:42:00;7.43;;;6.15;;
71150;SDS011;59071;42.138;24.768;2022-08-19T00:44:26;7.47;;;6.13;;
71150;SDS011;59071;42.138;24.768;2022-08-19T00:46:55;7.87;;;6.33;;
71150;SDS011;59071;42.138;24.768;2022-08-19T00:55:20;7.60;;;6.80;;
71150;SDS011;59071;42.138;24.768;2022-08-19T00:57:51;9.25;;;7.25;;
71150;SDS011;59071;42.138;24.768;2022-08-19T01:00:20;10.60;;;6.93;;
71150;SDS011;59071;42.138;24.768;2022-08-19T01:02:48;8.68;;;7.10;;
71150;SDS011;59071;42.138;24.768;2022-08-19T01:05:16;8.82;;;7.15;;
71150;SDS011;59071;42.138;24.768;2022-08-19T01:07:45;10.48;;;7.38;;
71150;SDS011;59071;42.138;24.768;2022-08-19T01:10:25;9.60;;;7.05;;
71150;SDS011;59071;42.138;24.768;2022-08-19T01:12:52;11.82;;;7.28;;
71150;SDS011;59071;42.138;24.768;2022-08-19T01:15:25;9.88;;;7.80;;
71150;SDS011;59071;42.138;24.768;2022-08-19T01:17:55;12.32;;;7.50;;
71150;SDS011;59071;42.138;24.768;2022-08-19T01:20:22;9.13;;;7.47;;
71150;SDS011;59071;42.138;24.768;2022-08-19T01:22:53;12.00;;;7.60;;
71150;SDS011;59071;42.138;24.768;2022-08-19T01:25:22;10.88;;;7.90;;
71150;SDS011;59071;42.138;24.768;2022-08-19T01:27:54;10.07;;;7.50;;
71150;SDS011;59071;42.138;24.768;2022-08-19T01:30:26;9.90;;;7.80;;
71150;SDS011;59071;42.138;24.768;2022-08-19T01:32:54;8.32;;;7.43;;
71150;SDS011;59071;42.138;24.768;2022-08-19T01:35:20;7.97;;;6.93;;
71150;SDS011;59071;42.138;24.768;2022-08-19T01:37:53;10.93;;;8.00;;
71150;SDS011;59071;42.138;24.768;2022-08-19T01:40:22;8.38;;;7.20;;
71150;SDS011;59071;42.138;24.768;2022-08-19T01:42:51;9.38;;;7.35;;
71150;SDS011;59071;42.138;24.768;2022-08-19T01:45:17;9.23;;;7.40;;
71150;SDS011;59071;42.138;24.768;2022-08-19T01:47:44;9.32;;;7.63;;
71150;SDS011;59071;42.138;24.768;2022-08-19T01:50:10;11.23;;;7.63;;
71150;SDS011;59071;42.138;24.768;2022-08-19T01:52:36;10.27;;;7.88;;
71150;SDS011;59071;42.138;24.768;2022-08-19T01:55:03;8.88;;;7.18;;
71150;SDS011;59071;42.138;24.768;2022-08-19T01:57:30;9.80;;;7.18;;
71150;SDS011;59071;42.138;24.768;2022-08-19T01:59:55;11.68;;;7.18;;
71150;SDS011;59071;42.138;24.768;2022-08-19T02:02:21;10.27;;;7.22;;
71150;SDS011;59071;42.138;24.768;2022-08-19T02:04:47;9.48;;;7.13;;
71150;SDS011;59071;42.138;24.768;2022-08-19T02:07:12;9.88;;;7.00;;
71150;SDS011;59071;42.138;24.768;2022-08-19T02:09:38;10.68;;;7.00;;
71150;SDS011;59071;42.138;24.768;2022-08-19T02:12:04;10.10;;;7.10;;
71150;SDS011;59071;42.138;24.768;2022-08-19T02:14:33;9.63;;;7.32;;
71150;SDS011;59071;42.138;24.768;2022-08-19T02:17:00;7.95;;;7.15;;
71150;SDS011;59071;42.138;24.768;2022-08-19T02:19:26;8.45;;;7.15;;
71150;SDS011;59071;42.138;24.768;2022-08-19T02:21:51;10.35;;;7.25;;
71150;SDS011;59071;42.138;24.768;2022-08-19T02:24:17;13.20;;;7.80;;
71150;SDS011;59071;42.138;24.768;2022-08-19T02:26:45;13.95;;;8.05;;
71150;SDS011;59071;42.138;24.768;2022-08-19T02:29:10;13.60;;;7.88;;
71150;SDS011;59071;42.138;24.768;2022-08-19T02:31:36;13.68;;;7.65;;
71150;SDS011;59071;42.138;24.768;2022-08-19T02:34:01;21.05;;;8.07;;
71150;SDS011;59071;42.138;24.768;2022-08-19T02:36:27;18.30;;;8.27;;
71150;SDS011;59071;42.138;24.768;2022-08-19T02:38:53;17.50;;;7.60;;
71150;SDS011;59071;42.138;24.768;2022-08-19T02:41:20;18.20;;;8.55;;
71150;SDS011;59071;42.138;24.768;2022-08-19T02:43:51;11.20;;;7.57;;
71150;SDS011;59071;42.138;24.768;2022-08-19T02:46:22;16.13;;;8.15;;
71150;SDS011;59071;42.138;24.768;2022-08-19T02:48:51;16.55;;;9.02;;
71150;SDS011;59071;42.138;24.768;2022-08-19T02:51:18;11.98;;;8.05;;
71150;SDS011;59071;42.138;24.768;2022-08-19T02:53:45;15.25;;;7.55;;
71150;SDS011;59071;42.138;24.768;2022-08-19T02:56:11;18.17;;;8.18;;
71150;SDS011;59071;42.138;24.768;2022-08-19T02:58:36;13.30;;;7.72;;
71150;SDS011;59071;42.138;24.768;2022-08-19T03:01:02;13.45;;;7.88;;
71150;SDS011;59071;42.138;24.768;2022-08-19T03:03:28;27.83;;;9.88;;
71150;SDS011;59071;42.138;24.768;2022-08-19T03:06:08;31.85;;;9.93;;
71150;SDS011;59071;42.138;24.768;2022-08-19T03:08:38;24.70;;;9.27;;
71150;SDS011;59071;42.138;24.768;2022-08-19T03:11:06;20.27;;;8.63;;
71150;SDS011;59071;42.138;24.768;2022-08-19T03:13:37;18.52;;;8.43;;
71150;SDS011;59071;42.138;24.768;2022-08-19T03:16:03;19.23;;;8.55;;
71150;SDS011;59071;42.138;24.768;2022-08-19T03:18:30;16.48;;;8.40;;
71150;SDS011;59071;42.138;24.768;2022-08-19T03:20:55;18.15;;;8.65;;
71150;SDS011;59071;42.138;24.768;2022-08-19T03:23:21;20.65;;;8.52;;
71150;SDS011;59071;42.138;24.768;2022-08-19T03:25:48;15.40;;;8.43;;
71150;SDS011;59071;42.138;24.768;2022-08-19T03:28:15;18.05;;;8.52;;
71150;SDS011;59071;42.138;24.768;2022-08-19T03:30:41;14.90;;;8.05;;
71150;SDS011;59071;42.138;24.768;2022-08-19T03:35:46;11.43;;;8.23;;
71150;SDS011;59071;42.138;24.768;2022-08-19T03:38:12;34.88;;;25.67;;
71150;SDS011;59071;42.138;24.768;2022-08-19T03:40:37;28.70;;;13.77;;
71150;SDS011;59071;42.138;24.768;2022-08-19T03:43:03;20.70;;;10.32;;
71150;SDS011;59071;42.138;24.768;2022-08-19T03:45:28;36.85;;;19.40;;
71150;SDS011;59071;42.138;24.768;2022-08-19T03:47:54;25.33;;;9.80;;
71150;SDS011;59071;42.138;24.768;2022-08-19T03:50:20;22.50;;;8.60;;
71150;SDS011;59071;42.138;24.768;2022-08-19T03:52:49;19.88;;;8.50;;
71150;SDS011;59071;42.138;24.768;2022-08-19T03:55:16;22.17;;;8.10;;
71150;SDS011;59071;42.138;24.768;2022-08-19T03:57:42;18.02;;;8.90;;
71150;SDS011;59071;42.138;24.768;2022-08-19T04:00:08;19.00;;;9.30;;
71150;SDS011;59071;42.138;24.768;2022-08-19T04:02:34;17.13;;;9.13;;
71150;SDS011;59071;42.138;24.768;2022-08-19T04:04:59;17.58;;;8.77;;
71150;SDS011;59071;42.138;24.768;2022-08-19T04:07:24;19.67;;;8.25;;
71150;SDS011;59071;42.138;24.768;2022-08-19T04:09:50;14.63;;;8.10;;
71150;SDS011;59071;42.138;24.768;2022-08-19T04:12:17;19.33;;;8.85;;
71150;SDS011;59071;42.138;24.768;2022-08-19T04:14:42;13.40;;;8.68;;
71150;SDS011;59071;42.138;24.768;2022-08-19T04:17:08;15.32;;;8.25;;
71150;SDS011;59071;42.138;24.768;2022-08-19T04:19:34;15.82;;;9.30;;
71150;SDS011;59071;42.138;24.768;2022-08-19T04:22:00;21.83;;;9.60;;
71150;SDS011;59071;42.138;24.768;2022-08-19T04:24:26;18.13;;;8.63;;
71150;SDS011;59071;42.138;24.768;2022-08-19T04:26:52;19.33;;;8.57;;
71150;SDS011;59071;42.138;24.768;2022-08-19T04:29:19;12.07;;;8.63;;
71150;SDS011;59071;42.138;24.768;2022-08-19T04:31:47;16.13;;;8.55;;
71150;SDS011;59071;42.138;24.768;2022-08-19T04:34:16;14.57;;;8.45;;
71150;SDS011;59071;42.138;24.768;2022-08-19T04:36:47;17.58;;;8.30;;
71150;SDS011;59071;42.138;24.768;2022-08-19T04:39:17;14.98;;;8.35;;
71150;SDS011;59071;42.138;24.768;2022-08-19T04:41:45;13.98;;;8.02;;
71150;SDS011;59071;42.138;24.768;2022-08-19T04:44:32;18.70;;;8.63;;
71150;SDS011;59071;42.138;24.768;2022-08-19T04:47:00;17.95;;;8.43;;
71150;SDS011;59071;42.138;24.768;2022-08-19T04:49:26;22.98;;;9.18;;
71150;SDS011;59071;42.138;24.768;2022-08-19T04:51:52;20.20;;;8.98;;
71150;SDS011;59071;42.138;24.768;2022-08-19T04:54:19;25.80;;;9.18;;
71150;SDS011;59071;42.138;24.768;2022-08-19T04:56:48;17.90;;;8.98;;
71150;SDS011;59071;42.138;24.768;2022-08-19T04:59:15;18.55;;;9.15;;
71150;SDS011;59071;42.138;24.768;2022-08-19T05:01:42;17.88;;;8.55;;
71150;SDS011;59071;42.138;24.768;2022-08-19T05:04:08;23.63;;;10.18;;
71150;SDS011;59071;42.138;24.768;2022-08-19T05:06:34;19.90;;;9.32;;
71150;SDS011;59071;42.138;24.768;2022-08-19T05:09:04;19.88;;;8.77;;
71150;SDS011;59071;42.138;24.768;2022-08-19T05:11:34;20.23;;;8.60;;
71150;SDS011;59071;42.138;24.768;2022-08-19T05:14:04;17.30;;;8.68;;
71150;SDS011;59071;42.138;24.768;2022-08-19T05:16:30;20.42;;;8.52;;
71150;SDS011;59071;42.138;24.768;2022-08-19T05:18:55;23.52;;;8.20;;
71150;SDS011;59071;42.138;24.768;2022-08-19T05:21:40;21.17;;;8.15;;
71150;SDS011;59071;42.138;24.768;2022-08-19T05:24:26;11.73;;;7.38;;
71150;SDS011;59071;42.138;24.768;2022-08-19T05:26:52;14.32;;;7.78;;
71150;SDS011;59071;42.138;24.768;2022-08-19T05:29:21;21.67;;;8.40;;
71150;SDS011;59071;42.138;24.768;2022-08-19T05:31:48;13.43;;;7.15;;
71150;SDS011;59071;42.138;24.768;2022-08-19T05:34:14;9.65;;;6.88;;
71150;SDS011;59071;42.138;24.768;2022-08-19T05:36:41;11.48;;;6.82;;
71150;SDS011;59071;42.138;24.768;2022-08-19T05:39:08;12.30;;;7.00;;
71150;SDS011;59071;42.138;24.768;2022-08-19T05:41:40;11.77;;;6.10;;
71150;SDS011;59071;42.138;24.768;2022-08-19T05:44:10;11.10;;;5.93;;
71150;SDS011;59071;42.138;24.768;2022-08-19T05:46:38;9.45;;;5.55;;
71150;SDS011;59071;42.138;24.768;2022-08-19T05:49:05;7.57;;;5.85;;
71150;SDS011;59071;42.138;24.768;2022-08-19T05:51:32;8.85;;;6.57;;
71150;SDS011;59071;42.138;24.768;2022-08-19T05:53:59;9.05;;;5.10;;
71150;SDS011;59071;42.138;24.768;2022-08-19T05:56:25;7.32;;;5.07;;
71150;SDS011;59071;42.138;24.768;2022-08-19T05:58:51;9.50;;;5.10;;
71150;SDS011;59071;42.138;24.768;2022-08-19T06:01:19;9.48;;;5.93;;
71150;SDS011;59071;42.138;24.768;2022-08-19T06:03:45;12.15;;;7.13;;
71150;SDS011;59071;42.138;24.768;2022-08-19T06:06:13;10.55;;;6.00;;
71150;SDS011;59071;42.138;24.768;2022-08-19T06:08:40;11.88;;;6.10;;
71150;SDS011;59071;42.138;24.768;2022-08-19T06:11:24;8.70;;;6.20;;
71150;SDS011;59071;42.138;24.768;2022-08-19T06:14:03;9.52;;;6.50;;
71150;SDS011;59071;42.138;24.768;2022-08-19T06:16:37;13.23;;;8.40;;
71150;SDS011;59071;42.138;24.768;2022-08-19T06:19:05;12.30;;;7.13;;
71150;SDS011;59071;42.138;24.768;2022-08-19T06:21:32;10.00;;;6.50;;
71150;SDS011;59071;42.138;24.768;2022-08-19T06:23:59;14.90;;;6.03;;
71150;SDS011;59071;42.138;24.768;2022-08-19T06:26:25;10.32;;;5.95;;
71150;SDS011;59071;42.138;24.768;2022-08-19T06:28:51;11.10;;;6.25;;
71150;SDS011;59071;42.138;24.768;2022-08-19T06:31:18;16.42;;;7.60;;
71150;SDS011;59071;42.138;24.768;2022-08-19T06:33:49;12.40;;;6.20;;
71150;SDS011;59071;42.138;24.768;2022-08-19T06:36:16;11.02;;;5.75;;
71150;SDS011;59071;42.138;24.768;2022-08-19T06:38:46;13.68;;;7.00;;
71150;SDS011;59071;42.138;24.768;2022-08-19T06:41:12;10.48;;;5.72;;
71150;SDS011;59071;42.138;24.768;2022-08-19T06:43:37;12.25;;;5.20;;
71150;SDS011;59071;42.138;24.768;2022-08-19T06:46:03;10.45;;;5.50;;
71150;SDS011;59071;42.138;24.768;2022-08-19T06:48:29;9.73;;;6.22;;
71150;SDS011;59071;42.138;24.768;2022-08-19T06:50:55;11.73;;;5.38;;
71150;SDS011;59071;42.138;24.768;2022-08-19T06:53:21;7.65;;;5.05;;
71150;SDS011;59071;42.138;24.768;2022-08-19T06:55:47;9.13;;;5.07;;
71150;SDS011;59071;42.138;24.768;2022-08-19T06:58:12;8.05;;;4.90;;
71150;SDS011;59071;42.138;24.768;2022-08-19T07:00:38;11.18;;;5.93;;
71150;SDS011;59071;42.138;24.768;2022-08-19T07:03:04;9.13;;;7.38;;
71150;SDS011;59071;42.138;24.768;2022-08-19T07:05:30;9.15;;;6.50;;
71150;SDS011;59071;42.138;24.768;2022-08-19T07:07:55;9.65;;;5.90;;
71150;SDS011;59071;42.138;24.768;2022-08-19T07:10:21;9.68;;;5.22;;
71150;SDS011;59071;42.138;24.768;2022-08-19T07:12:46;6.88;;;5.00;;
71150;SDS011;59071;42.138;24.768;2022-08-19T07:15:12;7.47;;;5.18;;
71150;SDS011;59071;42.138;24.768;2022-08-19T07:17:38;7.40;;;4.85;;
71150;SDS011;59071;42.138;24.768;2022-08-19T07:20:04;5.03;;;4.45;;
71150;SDS011;59071;42.138;24.768;2022-08-19T07:22:32;7.18;;;4.80;;
71150;SDS011;59071;42.138;24.768;2022-08-19T07:24:59;7.70;;;4.55;;
71150;SDS011;59071;42.138;24.768;2022-08-19T07:27:24;7.28;;;4.43;;
71150;SDS011;59071;42.138;24.768;2022-08-19T07:29:51;10.27;;;5.10;;
71150;SDS011;59071;42.138;24.768;2022-08-19T07:32:19;8.85;;;5.45;;
71150;SDS011;59071;42.138;24.768;2022-08-19T07:34:44;7.72;;;5.20;;
71150;SDS011;59071;42.138;24.768;2022-08-19T07:37:10;8.00;;;4.78;;
71150;SDS011;59071;42.138;24.768;2022-08-19T07:39:36;7.93;;;4.90;;
71150;SDS011;59071;42.138;24.768;2022-08-19T07:42:04;7.68;;;4.40;;
71150;SDS011;59071;42.138;24.768;2022-08-19T07:44:32;7.35;;;4.80;;
71150;SDS011;59071;42.138;24.768;2022-08-19T07:46:58;8.65;;;4.53;;
71150;SDS011;59071;42.138;24.768;2022-08-19T07:49:25;7.30;;;4.50;;
71150;SDS011;59071;42.138;24.768;2022-08-19T07:51:55;8.52;;;4.47;;
71150;SDS011;59071;42.138;24.768;2022-08-19T07:54:26;6.65;;;4.40;;
71150;SDS011;59071;42.138;24.768;2022-08-19T07:56:53;6.20;;;4.30;;
71150;SDS011;59071;42.138;24.768;2022-08-19T07:59:19;10.00;;;4.65;;
71150;SDS011;59071;42.138;24.768;2022-08-19T08:01:45;5.50;;;4.20;;
71150;SDS011;59071;42.138;24.768;2022-08-19T08:04:11;4.80;;;4.30;;
71150;SDS011;59071;42.138;24.768;2022-08-19T08:06:56;5.47;;;4.00;;
71150;SDS011;59071;42.138;24.768;2022-08-19T08:09:41;5.90;;;3.90;;
71150;SDS011;59071;42.138;24.768;2022-08-19T08:12:10;5.97;;;4.32;;
71150;SDS011;59071;42.138;24.768;2022-08-19T08:14:44;7.78;;;3.90;;
71150;SDS011;59071;42.138;24.768;2022-08-19T08:17:12;8.02;;;3.95;;
71150;SDS011;59071;42.138;24.768;2022-08-19T08:19:39;6.15;;;4.05;;
71150;SDS011;59071;42.138;24.768;2022-08-19T08:22:06;9.20;;;4.25;;
71150;SDS011;59071;42.138;24.768;2022-08-19T08:24:33;5.00;;;4.10;;
71150;SDS011;59071;42.138;24.768;2022-08-19T08:27:00;8.17;;;3.90;;
71150;SDS011;59071;42.138;24.768;2022-08-19T08:29:27;5.50;;;3.80;;
71150;SDS011;59071;42.138;24.768;2022-08-19T08:31:54;9.70;;;4.13;;
71150;SDS011;59071;42.138;24.768;2022-08-19T08:34:20;5.07;;;3.95;;
71150;SDS011;59071;42.138;24.768;2022-08-19T08:36:46;9.07;;;4.22;;
71150;SDS011;59071;42.138;24.768;2022-08-19T08:39:13;5.15;;;4.20;;
71150;SDS011;59071;42.138;24.768;2022-08-19T08:44:20;5.05;;;4.00;;
71150;SDS011;59071;42.138;24.768;2022-08-19T08:46:53;5.70;;;4.40;;
71150;SDS011;59071;42.138;24.768;2022-08-19T08:49:29;5.03;;;4.10;;
71150;SDS011;59071;42.138;24.768;2022-08-19T08:54:32;7.97;;;4.28;;
71150;SDS011;59071;42.138;24.768;2022-08-19T08:57:07;8.00;;;3.90;;
71150;SDS011;59071;42.138;24.768;2022-08-19T08:59:39;5.55;;;4.00;;
71150;SDS011;59071;42.138;24.768;2022-08-19T09:02:06;6.10;;;4.35;;
71150;SDS011;59071;42.138;24.768;2022-08-19T09:04:34;5.40;;;4.13;;
71150;SDS011;59071;42.138;24.768;2022-08-19T09:09:37;5.50;;;3.90;;
71150;SDS011;59071;42.138;24.768;2022-08-19T09:12:16;7.63;;;5.22;;
71150;SDS011;59071;42.138;24.768;2022-08-19T09:17:13;5.28;;;3.90;;
71150;SDS011;59071;42.138;24.768;2022-08-19T09:19:56;6.18;;;4.20;;
71150;SDS011;59071;42.138;24.768;2022-08-19T09:22:33;6.38;;;4.18;;
71150;SDS011;59071;42.138;24.768;2022-08-19T09:25:00;5.80;;;4.13;;
71150;SDS011;59071;42.138;24.768;2022-08-19T09:27:27;4.35;;;3.90;;
71150;SDS011;59071;42.138;24.768;2022-08-19T09:29:53;5.20;;;3.92;;
71150;SDS011;59071;42.138;24.768;2022-08-19T09:32:19;5.20;;;3.97;;
71150;SDS011;59071;42.138;24.768;2022-08-19T09:34:46;4.93;;;3.97;;
71150;SDS011;59071;42.138;24.768;2022-08-19T09:37:11;6.38;;;4.10;;
71150;SDS011;59071;42.138;24.768;2022-08-19T09:39:38;5.20;;;4.43;;
71150;SDS011;59071;42.138;24.768;2022-08-19T09:42:05;8.23;;;4.32;;
71150;SDS011;59071;42.138;24.768;2022-08-19T09:44:36;5.68;;;4.03;;
71150;SDS011;59071;42.138;24.768;2022-08-19T09:47:02;6.50;;;4.40;;
71150;SDS011;59071;42.138;24.768;2022-08-19T09:49:29;7.18;;;3.97;;
71150;SDS011;59071;42.138;24.768;2022-08-19T09:51:56;4.20;;;3.75;;
71150;SDS011;59071;42.138;24.768;2022-08-19T09:54:22;7.68;;;4.32;;
71150;SDS011;59071;42.138;24.768;2022-08-19T09:56:48;7.60;;;4.40;;
71150;SDS011;59071;42.138;24.768;2022-08-19T09:59:14;6.25;;;3.92;;
71150;SDS011;59071;42.138;24.768;2022-08-19T10:01:39;8.52;;;3.50;;
71150;SDS011;59071;42.138;24.768;2022-08-19T10:04:05;5.00;;;4.00;;
71150;SDS011;59071;42.138;24.768;2022-08-19T10:06:34;5.25;;;4.10;;
71150;SDS011;59071;42.138;24.768;2022-08-19T10:09:02;4.82;;;4.30;;
71150;SDS011;59071;42.138;24.768;2022-08-19T10:11:31;5.68;;;3.90;;
71150;SDS011;59071;42.138;24.768;2022-08-19T10:13:58;6.05;;;4.00;;
71150;SDS011;59071;42.138;24.768;2022-08-19T10:16:24;5.68;;;4.10;;
71150;SDS011;59071;42.138;24.768;2022-08-19T10:18:51;4.63;;;4.20;;
71150;SDS011;59071;42.138;24.768;2022-08-19T10:21:27;10.32;;;4.65;;
71150;SDS011;59071;42.138;24.768;2022-08-19T10:23:56;9.65;;;4.80;;
71150;SDS011;59071;42.138;24.768;2022-08-19T10:26:25;5.90;;;4.57;;
71150;SDS011;59071;42.138;24.768;2022-08-19T10:28:53;7.05;;;4.40;;
71150;SDS011;59071;42.138;24.768;2022-08-19T10:31:21;8.43;;;4.25;;
71150;SDS011;59071;42.138;24.768;2022-08-19T10:33:48;4.95;;;3.95;;
71150;SDS011;59071;42.138;24.768;2022-08-19T10:36:20;6.40;;;4.15;;
71150;SDS011;59071;42.138;24.768;2022-08-19T10:38:49;4.65;;;3.88;;
71150;SDS011;59071;42.138;24.768;2022-08-19T10:41:18;4.75;;;3.90;;
71150;SDS011;59071;42.138;24.768;2022-08-19T10:43:49;6.97;;;4.20;;
71150;SDS011;59071;42.138;24.768;2022-08-19T10:46:17;8.52;;;4.22;;
71150;SDS011;59071;42.138;24.768;2022-08-19T10:48:44;5.60;;;4.05;;
71150;SDS011;59071;42.138;24.768;2022-08-19T10:51:10;4.82;;;4.15;;
71150;SDS011;59071;42.138;24.768;2022-08-19T10:53:55;6.88;;;4.22;;
71150;SDS011;59071;42.138;24.768;2022-08-19T10:56:21;9.05;;;4.20;;
71150;SDS011;59071;42.138;24.768;2022-08-19T10:59:05;8.13;;;4.38;;
71150;SDS011;59071;42.138;24.768;2022-08-19T11:01:31;10.18;;;4.28;;
71150;SDS011;59071;42.138;24.768;2022-08-19T11:03:59;6.30;;;4.40;;
71150;SDS011;59071;42.138;24.768;2022-08-19T11:06:25;9.05;;;4.40;;
71150;SDS011;59071;42.138;24.768;2022-08-19T11:08:52;4.40;;;3.90;;
71150;SDS011;59071;42.138;24.768;2022-08-19T11:11:19;4.15;;;3.75;;
71150;SDS011;59071;42.138;24.768;2022-08-19T11:13:45;4.95;;;3.55;;
71150;SDS011;59071;42.138;24.768;2022-08-19T11:16:16;5.18;;;3.85;;
71150;SDS011;59071;42.138;24.768;2022-08-19T11:18:48;6.40;;;4.13;;
71150;SDS011;59071;42.138;24.768;2022-08-19T11:21:20;8.20;;;4.70;;
71150;SDS011;59071;42.138;24.768;2022-08-19T11:23:46;4.28;;;3.85;;
71150;SDS011;59071;42.138;24.768;2022-08-19T11:26:14;6.57;;;3.50;;
71150;SDS011;59071;42.138;24.768;2022-08-19T11:28:41;5.57;;;3.60;;
71150;SDS011;59071;42.138;24.768;2022-08-19T11:31:15;4.20;;;3.60;;
71150;SDS011;59071;42.138;24.768;2022-08-19T11:33:42;3.70;;;3.35;;
71150;SDS011;59071;42.138;24.768;2022-08-19T11:36:08;6.13;;;3.63;;
71150;SDS011;59071;42.138;24.768;2022-08-19T11:38:34;5.47;;;3.97;;
71150;SDS011;59071;42.138;24.768;2022-08-19T11:41:02;4.40;;;3.80;;
71150;SDS011;59071;42.138;24.768;2022-08-19T11:43:30;5.28;;;3.72;;
71150;SDS011;59071;42.138;24.768;2022-08-19T11:45:56;5.70;;;3.83;;
71150;SDS011;59071;42.138;24.768;2022-08-19T11:48:22;6.47;;;3.90;;
71150;SDS011;59071;42.138;24.768;2022-08-19T11:50:48;8.10;;;4.05;;
71150;SDS011;59071;42.138;24.768;2022-08-19T11:53:15;5.13;;;3.80;;
71150;SDS011;59071;42.138;24.768;2022-08-19T11:55:43;5.13;;;3.63;;
71150;SDS011;59071;42.138;24.768;2022-08-19T11:58:09;6.25;;;3.72;;
71150;SDS011;59071;42.138;24.768;2022-08-19T12:00:36;4.55;;;3.58;;
71150;SDS011;59071;42.138;24.768;2022-08-19T12:03:02;6.47;;;3.63;;
71150;SDS011;59071;42.138;24.768;2022-08-19T12:05:28;4.97;;;3.65;;
71150;SDS011;59071;42.138;24.768;2022-08-19T12:07:53;7.60;;;3.85;;
71150;SDS011;59071;42.138;24.768;2022-08-19T12:10:20;4.53;;;3.60;;
71150;SDS011;59071;42.138;24.768;2022-08-19T12:12:46;8.05;;;4.00;;
71150;SDS011;59071;42.138;24.768;2022-08-19T12:15:12;4.97;;;3.97;;
71150;SDS011;59071;42.138;24.768;2022-08-19T12:17:39;5.73;;;3.73;;
71150;SDS011;59071;42.138;24.768;2022-08-19T12:20:07;6.90;;;3.92;;
71150;SDS011;59071;42.138;24.768;2022-08-19T12:22:35;5.47;;;3.70;;
71150;SDS011;59071;42.138;24.768;2022-08-19T12:25:01;4.35;;;3.95;;
71150;SDS011;59071;42.138;24.768;2022-08-19T12:27:28;4.93;;;3.95;;
71150;SDS011;59071;42.138;24.768;2022-08-19T12:29:54;9.20;;;4.03;;
71150;SDS011;59071;42.138;24.768;2022-08-19T12:32:19;4.65;;;3.97;;
71150;SDS011;59071;42.138;24.768;2022-08-19T12:34:45;13.18;;;4.53;;
71150;SDS011;59071;42.138;24.768;2022-08-19T12:37:12;6.53;;;3.90;;
71150;SDS011;59071;42.138;24.768;2022-08-19T12:39:41;4.10;;;3.70;;
71150;SDS011;59071;42.138;24.768;2022-08-19T12:42:07;5.13;;;4.10;;
71150;SDS011;59071;42.138;24.768;2022-08-19T12:44:33;4.47;;;3.80;;
71150;SDS011;59071;42.138;24.768;2022-08-19T12:47:00;4.32;;;3.90;;
71150;SDS011;59071;42.138;24.768;2022-08-19T12:49:30;6.73;;;3.83;;
71150;SDS011;59071;42.138;24.768;2022-08-19T12:51:58;5.13;;;3.65;;
71150;SDS011;59071;42.138;24.768;2022-08-19T12:54:25;6.13;;;3.50;;
71150;SDS011;59071;42.138;24.768;2022-08-19T12:56:51;4.45;;;3.80;;
71150;SDS011;59071;42.138;24.768;2022-08-19T12:59:16;5.25;;;3.85;;
71150;SDS011;59071;42.138;24.768;2022-08-19T13:01:43;4.88;;;4.32;;
71150;SDS011;59071;42.138;24.768;2022-08-19T13:04:09;4.35;;;3.72;;
71150;SDS011;59071;42.138;24.768;2022-08-19T13:06:35;7.47;;;3.90;;
71150;SDS011;59071;42.138;24.768;2022-08-19T13:09:02;4.32;;;3.83;;
71150;SDS011;59071;42.138;24.768;2022-08-19T13:11:28;5.03;;;3.55;;
71150;SDS011;59071;42.138;24.768;2022-08-19T13:13:57;4.30;;;3.53;;
71150;SDS011;59071;42.138;24.768;2022-08-19T13:16:23;5.85;;;3.97;;
71150;SDS011;59071;42.138;24.768;2022-08-19T13:18:51;6.53;;;3.80;;
71150;SDS011;59071;42.138;24.768;2022-08-19T13:21:17;5.28;;;3.90;;
71150;SDS011;59071;42.138;24.768;2022-08-19T13:26:10;5.55;;;3.65;;
71150;SDS011;59071;42.138;24.768;2022-08-19T13:28:38;5.28;;;3.80;;
71150;SDS011;59071;42.138;24.768;2022-08-19T13:31:23;4.60;;;3.78;;
71150;SDS011;59071;42.138;24.768;2022-08-19T13:34:09;6.22;;;3.72;;
71150;SDS011;59071;42.138;24.768;2022-08-19T13:36:38;5.53;;;3.80;;
71150;SDS011;59071;42.138;24.768;2022-08-19T13:39:05;6.60;;;3.72;;
71150;SDS011;59071;42.138;24.768;2022-08-19T13:41:32;6.80;;;3.90;;
71150;SDS011;59071;42.138;24.768;2022-08-19T13:43:59;8.77;;;4.20;;
71150;SDS011;59071;42.138;24.768;2022-08-19T13:46:25;4.60;;;3.75;;
71150;SDS011;59071;42.138;24.768;2022-08-19T13:48:52;7.83;;;3.73;;
71150;SDS011;59071;42.138;24.768;2022-08-19T13:51:17;8.70;;;4.18;;
71150;SDS011;59071;42.138;24.768;2022-08-19T13:53:43;25.35;;;4.45;;
71150;SDS011;59071;42.138;24.768;2022-08-19T13:56:11;16.15;;;4.28;;
71150;SDS011;59071;42.138;24.768;2022-08-19T13:58:38;18.17;;;4.95;;
71150;SDS011;59071;42.138;24.768;2022-08-19T14:01:04;12.02;;;4.20;;
71150;SDS011;59071;42.138;24.768;2022-08-19T14:03:31;5.60;;;3.55;;
71150;SDS011;59071;42.138;24.768;2022-08-19T14:05:58;4.13;;;3.53;;
71150;SDS011;59071;42.138;24.768;2022-08-19T14:08:24;4.97;;;4.20;;
71150;SDS011;59071;42.138;24.768;2022-08-19T14:10:50;7.68;;;3.80;;
71150;SDS011;59071;42.138;24.768;2022-08-19T14:13:17;5.88;;;3.78;;
71150;SDS011;59071;42.138;24.768;2022-08-19T14:15:45;4.18;;;3.60;;
71150;SDS011;59071;42.138;24.768;2022-08-19T14:18:12;4.70;;;3.80;;
71150;SDS011;59071;42.138;24.768;2022-08-19T14:20:37;6.63;;;3.75;;
71150;SDS011;59071;42.138;24.768;2022-08-19T14:23:03;6.38;;;3.80;;
71150;SDS011;59071;42.138;24.768;2022-08-19T14:25:30;5.70;;;3.87;;
71150;SDS011;59071;42.138;24.768;2022-08-19T14:27:57;5.10;;;3.70;;
71150;SDS011;59071;42.138;24.768;2022-08-19T14:30:24;4.68;;;3.80;;
71150;SDS011;59071;42.138;24.768;2022-08-19T14:32:55;4.00;;;3.60;;
71150;SDS011;59071;42.138;24.768;2022-08-19T14:35:23;6.18;;;4.32;;
71150;SDS011;59071;42.138;24.768;2022-08-19T14:37:48;4.30;;;3.90;;
71150;SDS011;59071;42.138;24.768;2022-08-19T14:40:15;6.03;;;3.88;;
71150;SDS011;59071;42.138;24.768;2022-08-19T14:42:45;7.82;;;3.85;;
71150;SDS011;59071;42.138;24.768;2022-08-19T14:45:13;5.18;;;4.40;;
71150;SDS011;59071;42.138;24.768;2022-08-19T14:47:38;5.70;;;4.05;;
71150;SDS011;59071;42.138;24.768;2022-08-19T14:50:05;4.85;;;4.03;;
71150;SDS011;59071;42.138;24.768;2022-08-19T14:52:32;6.72;;;3.90;;
71150;SDS011;59071;42.138;24.768;2022-08-19T14:54:58;7.80;;;3.90;;